Time;durP1;ratioP1;P1;durP2;ratioP2;P2;SDS_P1;SDS_P2;PMS_P1;PMS_P2;Temp;Humidity;BMP_temperature;BMP_pressure;BME280_temperature;BME280_humidity;BME280_pressure;Samples;Min_cycle;Max_cycle;Signal;HPM_P1;HPM_P2
2023/04/27 00:01:25;;;;;;;8.95;4.85;;;;;;;;;;5072496;28;20049;-74
2023/04/27 00:03:52;;;;;;;15.02;5.10;;;;;;;;;;5051433;28;20521;-71
2023/04/27 00:06:18;;;;;;;9.27;5.15;;;;;;;;;;5059351;28;20124;-64
2023/04/27 00:08:44;;;;;;;11.10;4.65;;;;;;;;;;5071011;28;20057;-74
2023/04/27 00:11:10;;;;;;;10.30;4.70;;;;;;;;;;5072405;28;20048;-74
2023/04/27 00:13:36;;;;;;;9.68;5.20;;;;;;;;;;5071550;28;20477;-73
2023/04/27 00:16:02;;;;;;;11.07;4.63;;;;;;;;;;5055150;28;20113;-70
2023/04/27 00:18:29;;;;;;;8.93;4.68;;;;;;;;;;5038498;28;20122;-72
2023/04/27 00:20:56;;;;;;;6.95;4.43;;;;;;;;;;5071411;28;20044;-73
2023/04/27 00:23:22;;;;;;;7.97;4.65;;;;;;;;;;5051547;28;20404;-72
2023/04/27 00:25:48;;;;;;;8.13;4.10;;;;;;;;;;5053796;28;20044;-72
2023/04/27 00:28:14;;;;;;;10.32;4.10;;;;;;;;;;5050936;28;20060;-71
2023/04/27 00:30:40;;;;;;;10.68;4.47;;;;;;;;;;5072153;28;20071;-73
2023/04/27 00:33:06;;;;;;;8.20;4.72;;;;;;;;;;5050796;28;20049;-73
2023/04/27 00:35:33;;;;;;;11.18;4.78;;;;;;;;;;5052572;28;20060;-74
2023/04/27 00:37:59;;;;;;;7.25;4.68;;;;;;;;;;5071779;28;20080;-73
2023/04/27 00:40:25;;;;;;;10.90;4.63;;;;;;;;;;5054336;28;20044;-74
2023/04/27 00:42:51;;;;;;;10.30;4.97;;;;;;;;;;5071542;28;20040;-73
2023/04/27 00:45:17;;;;;;;8.90;4.57;;;;;;;;;;5037910;28;20080;-73
2023/04/27 00:47:43;;;;;;;7.60;3.90;;;;;;;;;;5072473;28;20048;-73
2023/04/27 00:50:10;;;;;;;9.60;4.50;;;;;;;;;;5053700;28;20045;-73
2023/04/27 00:52:37;;;;;;;8.40;4.45;;;;;;;;;;5036434;28;20041;-73
2023/04/27 00:55:04;;;;;;;8.35;4.43;;;;;;;;;;5035663;28;20058;-73
2023/04/27 00:57:30;;;;;;;8.52;4.30;;;;;;;;;;5054217;28;20052;-73
2023/04/27 00:59:56;;;;;;;8.10;5.10;;;;;;;;;;5054509;28;20451;-71
2023/04/27 01:02:22;;;;;;;12.35;5.35;;;;;;;;;;5072229;28;20071;-71
2023/04/27 01:04:49;;;;;;;8.52;4.63;;;;;;;;;;5033872;28;20386;-73
2023/04/27 01:07:17;;;;;;;14.18;5.30;;;;;;;;;;5048856;28;20059;-70
2023/04/27 01:09:43;;;;;;;8.95;5.18;;;;;;;;;;5034757;28;20048;-73
2023/04/27 01:12:09;;;;;;;9.90;4.68;;;;;;;;;;5071930;28;20056;-73
2023/04/27 01:14:36;;;;;;;7.97;4.05;;;;;;;;;;5071251;28;20048;-73
2023/04/27 01:17:02;;;;;;;10.10;4.20;;;;;;;;;;5053589;28;20081;-73
2023/04/27 01:19:28;;;;;;;9.35;4.82;;;;;;;;;;5071937;28;20052;-74
2023/04/27 01:21:54;;;;;;;8.02;4.95;;;;;;;;;;5070353;28;20437;-73
2023/04/27 01:24:20;;;;;;;8.23;4.07;;;;;;;;;;5069984;28;20051;-74
2023/04/27 01:26:46;;;;;;;11.50;4.97;;;;;;;;;;5082914;22;20061;-70
2023/04/27 01:29:12;;;;;;;9.57;4.93;;;;;;;;;;5051807;28;20156;-74
2023/04/27 01:31:38;;;;;;;8.80;4.63;;;;;;;;;;5034127;28;20055;-74
2023/04/27 01:34:04;;;;;;;8.98;4.93;;;;;;;;;;5050862;28;20542;-74
2023/04/27 01:36:31;;;;;;;7.50;4.35;;;;;;;;;;5051344;28;20433;-74
2023/04/27 01:38:57;;;;;;;10.15;4.63;;;;;;;;;;5033258;28;20053;-75
2023/04/27 01:41:23;;;;;;;9.82;4.75;;;;;;;;;;5051569;28;20053;-73
2023/04/27 01:43:49;;;;;;;10.30;4.43;;;;;;;;;;5051813;28;20045;-74
2023/04/27 01:46:15;;;;;;;10.77;5.13;;;;;;;;;;5051544;28;20041;-75
2023/04/27 01:48:41;;;;;;;8.23;4.82;;;;;;;;;;5015108;28;20048;-74
2023/04/27 01:51:07;;;;;;;12.75;5.70;;;;;;;;;;5048992;28;20051;-72
2023/04/27 01:53:34;;;;;;;11.18;5.47;;;;;;;;;;5051068;28;20067;-73
2023/04/27 01:56:00;;;;;;;9.45;5.20;;;;;;;;;;5033863;28;20055;-73
2023/04/27 01:58:26;;;;;;;10.00;5.55;;;;;;;;;;5032650;28;20128;-74
2023/04/27 02:00:52;;;;;;;10.77;5.22;;;;;;;;;;5030519;28;20049;-74
2023/04/27 02:03:18;;;;;;;8.73;5.43;;;;;;;;;;5051401;28;20507;-72
2023/04/27 02:05:45;;;;;;;10.45;5.22;;;;;;;;;;5050560;28;20063;-73
2023/04/27 02:08:12;;;;;;;12.68;5.90;;;;;;;;;;5033304;28;20080;-70
2023/04/27 02:10:38;;;;;;;12.40;6.03;;;;;;;;;;5032268;28;20037;-74
2023/04/27 02:13:04;;;;;;;10.88;5.65;;;;;;;;;;5033401;28;20045;-74
2023/04/27 02:15:30;;;;;;;11.45;5.95;;;;;;;;;;5032615;28;20056;-71
2023/04/27 02:17:57;;;;;;;10.00;5.55;;;;;;;;;;5000261;28;20455;-74
2023/04/27 02:20:23;;;;;;;11.73;6.32;;;;;;;;;;5035071;28;20064;-74
2023/04/27 02:22:49;;;;;;;8.70;5.05;;;;;;;;;;5054900;28;20088;-73
2023/04/27 02:25:15;;;;;;;13.48;5.32;;;;;;;;;;5055029;28;20144;-73
2023/04/27 02:27:41;;;;;;;10.38;5.28;;;;;;;;;;5052915;28;20520;-73
2023/04/27 02:30:08;;;;;;;7.47;4.68;;;;;;;;;;5053136;28;20049;-74
2023/04/27 02:32:34;;;;;;;11.68;5.60;;;;;;;;;;5035668;28;20052;-71
2023/04/27 02:35:01;;;;;;;11.88;5.68;;;;;;;;;;5052956;28;20874;-74
2023/04/27 02:37:27;;;;;;;14.07;5.60;;;;;;;;;;5035466;28;20107;-73
2023/04/27 02:39:54;;;;;;;13.10;6.25;;;;;;;;;;5052141;28;20072;-73
2023/04/27 02:42:20;;;;;;;13.07;5.45;;;;;;;;;;5018476;28;20084;-73
2023/04/27 02:44:47;;;;;;;8.90;5.30;;;;;;;;;;5035354;28;20056;-73
2023/04/27 02:47:13;;;;;;;9.85;5.40;;;;;;;;;;5051886;28;20052;-74
2023/04/27 02:49:39;;;;;;;11.13;5.28;;;;;;;;;;5050898;28;20045;-62
2023/04/27 02:52:05;;;;;;;8.90;5.05;;;;;;;;;;5034267;28;20591;-73
2023/04/27 02:54:31;;;;;;;9.18;4.55;;;;;;;;;;5052478;28;20081;-73
2023/04/27 02:56:57;;;;;;;9.18;4.50;;;;;;;;;;5035535;28;20092;-72
2023/04/27 02:59:23;;;;;;;7.15;4.25;;;;;;;;;;5051998;28;20098;-73
2023/04/27 03:01:49;;;;;;;8.40;4.72;;;;;;;;;;5052446;28;20124;-74
2023/04/27 03:04:16;;;;;;;9.55;4.85;;;;;;;;;;5048959;28;20450;-74
2023/04/27 03:06:42;;;;;;;10.13;4.90;;;;;;;;;;5035472;28;20120;-74
2023/04/27 03:09:11;;;;;;;7.32;4.63;;;;;;;;;;5053021;28;20453;-73
2023/04/27 03:11:37;;;;;;;10.73;5.18;;;;;;;;;;5019079;28;20048;-74
2023/04/27 03:14:04;;;;;;;8.57;4.82;;;;;;;;;;5034112;28;20049;-70
2023/04/27 03:16:33;;;;;;;8.63;4.53;;;;;;;;;;5050383;28;20068;-74
2023/04/27 03:18:59;;;;;;;11.02;5.40;;;;;;;;;;5034464;28;20139;-74
2023/04/27 03:21:25;;;;;;;11.20;4.63;;;;;;;;;;5052731;28;20041;-75
2023/04/27 03:23:52;;;;;;;10.65;4.50;;;;;;;;;;5052194;28;20076;-75
2023/04/27 03:26:19;;;;;;;10.80;4.45;;;;;;;;;;4996301;28;1090248;-75
2023/04/27 03:28:45;;;;;;;11.57;4.63;;;;;;;;;;5018808;28;20057;-74
2023/04/27 03:31:12;;;;;;;10.30;4.78;;;;;;;;;;5052493;28;20051;-62
2023/04/27 03:33:38;;;;;;;9.07;5.10;;;;;;;;;;5017923;28;20401;-74
2023/04/27 03:36:05;;;;;;;8.70;4.72;;;;;;;;;;5053775;28;20045;-71
2023/04/27 03:38:32;;;;;;;8.35;4.50;;;;;;;;;;5035674;28;20063;-73
2023/04/27 03:40:58;;;;;;;8.73;4.55;;;;;;;;;;5053059;28;20044;-73
2023/04/27 03:43:24;;;;;;;8.63;4.18;;;;;;;;;;5035022;28;20452;-73
2023/04/27 03:45:51;;;;;;;10.88;4.93;;;;;;;;;;5035162;28;20051;-70
2023/04/27 03:48:17;;;;;;;10.00;4.65;;;;;;;;;;5018190;28;20073;-74
2023/04/27 03:50:43;;;;;;;9.27;5.32;;;;;;;;;;5034948;28;20059;-75
2023/04/27 03:53:10;;;;;;;8.82;4.60;;;;;;;;;;5018355;28;20041;-75
2023/04/27 03:55:40;;;;;;;8.68;5.07;;;;;;;;;;5019269;28;20045;-70
2023/04/27 03:58:06;;;;;;;13.17;5.10;;;;;;;;;;5015827;28;20655;-72
2023/04/27 04:00:36;;;;;;;8.60;4.90;;;;;;;;;;5021600;28;20041;-74
2023/04/27 04:03:02;;;;;;;8.98;5.18;;;;;;;;;;5033280;28;20045;-74
2023/04/27 04:05:29;;;;;;;12.20;5.20;;;;;;;;;;5016997;28;20044;-74
2023/04/27 04:07:56;;;;;;;9.02;4.88;;;;;;;;;;5051802;28;20124;-74
2023/04/27 04:10:22;;;;;;;10.98;5.30;;;;;;;;;;5035239;28;20447;-72
2023/04/27 04:12:48;;;;;;;9.13;5.07;;;;;;;;;;5051717;28;20046;-71
2023/04/27 04:15:14;;;;;;;8.25;4.43;;;;;;;;;;5052888;28;20098;-73
2023/04/27 04:17:40;;;;;;;7.78;4.20;;;;;;;;;;5048491;28;20088;-74
2023/04/27 04:20:08;;;;;;;10.00;5.18;;;;;;;;;;5053086;28;20068;-74
2023/04/27 04:22:34;;;;;;;9.60;4.65;;;;;;;;;;5034162;28;20053;-74
2023/04/27 04:25:00;;;;;;;8.60;4.43;;;;;;;;;;5051528;28;20092;-74
2023/04/27 04:27:26;;;;;;;11.07;4.93;;;;;;;;;;5052363;28;20057;-74
2023/04/27 04:29:52;;;;;;;14.20;6.32;;;;;;;;;;5052763;28;20045;-74
2023/04/27 04:32:19;;;;;;;10.48;5.53;;;;;;;;;;5051171;28;20044;-70
2023/04/27 04:34:51;;;;;;;10.35;5.50;;;;;;;;;;5033161;28;20070;-73
2023/04/27 04:37:17;;;;;;;9.30;5.28;;;;;;;;;;5034479;28;20037;-74
2023/04/27 04:39:43;;;;;;;10.55;5.43;;;;;;;;;;5052534;28;20041;-71
2023/04/27 04:42:10;;;;;;;7.88;4.35;;;;;;;;;;5033169;28;20448;-68
2023/04/27 04:44:37;;;;;;;13.73;5.60;;;;;;;;;;5017625;28;20482;-74
2023/04/27 04:47:03;;;;;;;16.10;5.00;;;;;;;;;;5033852;28;20049;-73
2023/04/27 04:49:30;;;;;;;12.32;5.72;;;;;;;;;;5034505;28;20139;-73
2023/04/27 04:51:56;;;;;;;13.57;6.22;;;;;;;;;;5018383;28;20055;-73
2023/04/27 04:54:22;;;;;;;11.30;6.47;;;;;;;;;;5032265;28;20041;-74
2023/04/27 04:56:48;;;;;;;16.33;5.97;;;;;;;;;;5050491;28;20467;-74
2023/04/27 04:59:15;;;;;;;11.15;5.82;;;;;;;;;;5051834;28;20049;-66
2023/04/27 05:01:41;;;;;;;11.35;5.72;;;;;;;;;;5033009;28;20037;-74
2023/04/27 05:04:07;;;;;;;12.63;5.82;;;;;;;;;;5049583;28;20045;-68
2023/04/27 05:06:33;;;;;;;13.32;5.63;;;;;;;;;;5051346;28;20045;-73
2023/04/27 05:08:59;;;;;;;12.30;6.38;;;;;;;;;;5052018;28;20572;-74
2023/04/27 05:11:25;;;;;;;17.02;6.15;;;;;;;;;;5034066;28;20080;-73
2023/04/27 05:13:51;;;;;;;12.27;5.88;;;;;;;;;;5016801;28;20037;-74
2023/04/27 05:16:18;;;;;;;20.05;8.13;;;;;;;;;;5051026;28;20063;-74
2023/04/27 05:18:44;;;;;;;12.95;6.55;;;;;;;;;;5049860;28;20385;-75
2023/04/27 05:21:14;;;;;;;10.15;6.00;;;;;;;;;;5044035;28;20397;-74
2023/04/27 05:23:40;;;;;;;10.50;5.97;;;;;;;;;;5017555;28;20037;-74
2023/04/27 05:26:16;;;;;;;12.23;5.93;;;;;;;;;;5034135;28;20041;-72
2023/04/27 05:28:42;;;;;;;10.38;5.50;;;;;;;;;;5017500;28;20045;-74
2023/04/27 05:31:08;;;;;;;13.43;5.93;;;;;;;;;;5050518;28;20041;-76
2023/04/27 05:33:34;;;;;;;10.95;6.07;;;;;;;;;;5049565;28;20041;-75
2023/04/27 05:36:00;;;;;;;15.80;6.13;;;;;;;;;;5051867;28;20512;-75
2023/04/27 05:38:26;;;;;;;13.82;5.55;;;;;;;;;;5029636;28;20498;-73
2023/04/27 05:40:56;;;;;;;10.50;5.05;;;;;;;;;;5014486;28;20049;-74
2023/04/27 05:43:23;;;;;;;12.63;5.90;;;;;;;;;;5048646;28;20044;-74
2023/04/27 05:45:49;;;;;;;12.57;6.15;;;;;;;;;;5033017;28;20048;-74
2023/04/27 05:48:15;;;;;;;18.60;7.50;;;;;;;;;;5022309;28;20084;-73
2023/04/27 05:50:41;;;;;;;10.98;5.80;;;;;;;;;;5051538;28;20056;-73
2023/04/27 05:53:08;;;;;;;10.52;5.57;;;;;;;;;;5051572;28;20052;-73
2023/04/27 05:55:34;;;;;;;16.52;6.38;;;;;;;;;;5019781;28;20136;-73
2023/04/27 05:58:01;;;;;;;13.98;6.07;;;;;;;;;;5036301;28;20045;-72
2023/04/27 06:00:27;;;;;;;13.55;7.13;;;;;;;;;;5054878;28;20041;-72
2023/04/27 06:02:53;;;;;;;14.32;6.57;;;;;;;;;;5054383;28;20053;-73
2023/04/27 06:05:20;;;;;;;12.13;5.97;;;;;;;;;;5037326;28;20111;-72
2023/04/27 06:07:46;;;;;;;10.60;5.32;;;;;;;;;;5054609;28;21354;-73
2023/04/27 06:10:12;;;;;;;13.57;6.25;;;;;;;;;;5055418;28;20049;-72
2023/04/27 06:12:38;;;;;;;12.63;6.00;;;;;;;;;;5053699;28;20051;-71
2023/04/27 06:15:08;;;;;;;14.90;6.03;;;;;;;;;;5052124;28;20106;-72
2023/04/27 06:17:38;;;;;;;10.98;6.03;;;;;;;;;;5036388;28;20055;-72
2023/04/27 06:20:14;;;;;;;10.98;5.20;;;;;;;;;;5032247;28;20057;-72
2023/04/27 06:22:40;;;;;;;9.10;5.10;;;;;;;;;;5054225;28;20041;-72
2023/04/27 06:25:06;;;;;;;8.52;5.28;;;;;;;;;;5052077;28;20052;-72
2023/04/27 06:27:32;;;;;;;10.70;5.10;;;;;;;;;;5035867;28;20068;-73
2023/04/27 06:29:58;;;;;;;8.27;4.28;;;;;;;;;;5054111;28;20117;-72
2023/04/27 06:32:25;;;;;;;10.50;4.53;;;;;;;;;;5020328;28;20057;-72
2023/04/27 06:34:51;;;;;;;11.43;5.35;;;;;;;;;;5054274;28;20083;-72
2023/04/27 06:37:17;;;;;;;8.68;4.97;;;;;;;;;;5054687;28;20570;-72
2023/04/27 06:39:43;;;;;;;11.85;4.47;;;;;;;;;;5053171;28;20052;-72
2023/04/27 06:42:09;;;;;;;17.45;4.80;;;;;;;;;;5018906;28;20057;-72
2023/04/27 06:44:35;;;;;;;10.75;4.57;;;;;;;;;;5053758;28;20045;-72
2023/04/27 06:47:02;;;;;;;6.65;3.97;;;;;;;;;;5054054;28;20056;-72
2023/04/27 06:49:28;;;;;;;6.95;3.72;;;;;;;;;;5036567;28;20145;-73
2023/04/27 06:51:54;;;;;;;6.53;3.70;;;;;;;;;;5053782;28;20473;-73
2023/04/27 06:54:20;;;;;;;6.25;3.42;;;;;;;;;;5052597;28;20041;-68
2023/04/27 06:56:46;;;;;;;6.28;3.95;;;;;;;;;;5053875;28;20052;-73
2023/04/27 06:59:12;;;;;;;7.63;3.25;;;;;;;;;;5053938;28;20075;-72
2023/04/27 07:01:38;;;;;;;7.00;3.03;;;;;;;;;;5053197;28;20049;-72
2023/04/27 07:04:04;;;;;;;9.10;2.88;;;;;;;;;;5051037;28;20052;-72
2023/04/27 07:06:31;;;;;;;5.75;2.83;;;;;;;;;;5018639;28;20540;-72
2023/04/27 07:08:57;;;;;;;6.57;2.80;;;;;;;;;;5036682;28;20107;-73
2023/04/27 07:11:23;;;;;;;4.95;2.53;;;;;;;;;;5053613;28;20044;-72
2023/04/27 07:13:50;;;;;;;3.30;2.10;;;;;;;;;;5052356;28;20049;-73
2023/04/27 07:16:16;;;;;;;10.68;2.30;;;;;;;;;;5019154;28;20041;-73
2023/04/27 07:18:42;;;;;;;4.72;2.05;;;;;;;;;;5033221;28;20044;-70
2023/04/27 07:21:08;;;;;;;4.75;2.17;;;;;;;;;;5053345;28;20524;-69
2023/04/27 07:23:34;;;;;;;2.58;1.85;;;;;;;;;;5034420;28;20041;-70
2023/04/27 07:26:01;;;;;;;5.85;1.85;;;;;;;;;;5052657;28;20109;-69
2023/04/27 07:28:28;;;;;;;4.80;2.20;;;;;;;;;;5019033;28;20057;-69
2023/04/27 07:30:54;;;;;;;8.45;2.47;;;;;;;;;;5034206;28;20048;-68
2023/04/27 07:33:21;;;;;;;6.25;2.13;;;;;;;;;;5019332;28;20067;-68
2023/04/27 07:35:49;;;;;;;8.80;2.05;;;;;;;;;;5019417;28;20040;-70
2023/04/27 07:38:16;;;;;;;5.68;2.00;;;;;;;;;;5035413;28;20072;-71
2023/04/27 07:40:42;;;;;;;4.13;1.73;;;;;;;;;;5017128;28;20049;-70
2023/04/27 07:43:09;;;;;;;6.95;2.00;;;;;;;;;;5051284;28;20127;-69
2023/04/27 07:45:37;;;;;;;3.72;1.90;;;;;;;;;;5017153;28;20588;-70
2023/04/27 07:48:03;;;;;;;5.10;2.03;;;;;;;;;;5019452;28;20151;-67
2023/04/27 07:50:30;;;;;;;8.00;2.15;;;;;;;;;;5051428;28;20043;-71
2023/04/27 07:52:57;;;;;;;3.28;1.83;;;;;;;;;;5035423;28;20132;-70
2023/04/27 07:55:23;;;;;;;4.85;2.00;;;;;;;;;;5052072;28;20052;-70
2023/04/27 08:00:33;;;;;;;5.10;2.60;;;;;;;;;;4995401;28;20499;-71
2023/04/27 08:02:59;;;;;;;7.78;2.80;;;;;;;;;;5014431;28;20057;-71
2023/04/27 08:05:25;;;;;;;5.88;2.38;;;;;;;;;;4998609;28;20061;-70
2023/04/27 08:07:52;;;;;;;9.75;4.20;;;;;;;;;;5007509;28;20490;-71
2023/04/27 08:10:18;;;;;;;14.48;5.38;;;;;;;;;;4995686;28;20041;-69
2023/04/27 08:12:44;;;;;;;14.90;4.93;;;;;;;;;;5024643;22;20045;-71
2023/04/27 08:15:11;;;;;;;9.25;4.53;;;;;;;;;;5046670;28;20132;-70
2023/04/27 08:17:39;;;;;;;9.15;3.45;;;;;;;;;;5015235;28;20049;-67
2023/04/27 08:20:06;;;;;;;7.55;3.38;;;;;;;;;;5029067;28;20497;-69
2023/04/27 08:22:32;;;;;;;10.15;3.35;;;;;;;;;;5052231;28;20497;-71
2023/04/27 08:24:59;;;;;;;10.65;3.03;;;11.40;99.90;;;;;;5017745;28;20045;-71
2023/04/27 08:27:25;;;;;;;5.53;2.38;;;;;;;;;;5026581;28;20056;-72
2023/04/27 08:29:51;;;;;;;8.63;3.47;;;;;;;;;;5012186;28;20448;-71
2023/04/27 08:32:17;;;;;;;10.00;2.88;;;;;;;;;;5023520;28;20064;-68
2023/04/27 08:34:46;;;;;;;9.27;3.80;;;;;;;;;;5044348;28;20480;-71
2023/04/27 08:37:12;;;;;;;6.63;3.03;;;;;;;;;;5023856;28;20416;-71
2023/04/27 08:39:38;;;;;;;9.50;2.50;;;;;;;;;;5022210;28;20037;-72
2023/04/27 08:42:13;;;;;;;10.68;3.13;;;;;;;;;;5042722;28;20579;-72
2023/04/27 08:44:40;;;;;;;6.35;1.67;;;;;;;;;;5039964;28;20122;-72
2023/04/27 08:47:07;;;;;;;4.38;1.63;;;;;;;;;;5042242;28;20041;-70
2023/04/27 08:49:42;;;;;;;2.92;1.67;;;;;;;;;;5046265;28;20489;-67
2023/04/27 08:52:15;;;;;;;6.47;2.15;;;;;;;;;;5026602;28;20049;-76
2023/04/27 08:54:41;;;;;;;4.28;2.38;;;;;;;;;;5045251;28;20116;-72
2023/04/27 08:57:14;;;;;;;6.90;2.17;;;;;;;;;;5024402;28;20136;-63
2023/04/27 08:59:40;;;;;;;13.88;3.30;;;;;;;;;;5005705;28;20041;-64
2023/04/27 09:02:06;;;;;;;11.27;4.15;;;;;;;;;;5025849;28;20128;-63
2023/04/27 09:04:37;;;;;;;7.93;2.88;;;;;;;;;;5024104;28;20549;-62
2023/04/27 09:07:10;;;;;;;7.20;2.85;;;;;;;;;;5020336;28;20052;-63
2023/04/27 09:09:36;;;;;;;5.97;2.70;;;;;;;;;;5004280;28;20053;-65
2023/04/27 09:12:13;;;;;;;4.63;1.90;;;;;;;;;;5020525;28;20086;-65
2023/04/27 09:14:39;;;;;;;7.18;2.30;;;;;;;;;;5042720;28;20057;-63
2023/04/27 09:17:05;;;;;;;4.07;2.00;;;;;;;;;;5024372;28;20128;-68
2023/04/27 09:19:31;;;;;;;5.82;2.20;;;;;;;;;;5034224;28;20265;-68
2023/04/27 09:22:10;;;;;;;4.53;1.80;;;12.90;99.90;;;;;;5032549;28;20114;-66
2023/04/27 09:24:36;;;;;;;4.68;1.83;;;;;;;;;;5017480;28;20496;-70
2023/04/27 09:27:03;;;;;;;3.60;1.73;;;;;;;;;;5017596;28;20388;-71
2023/04/27 09:29:36;;;;;;;4.75;2.10;;;;;;;;;;5050810;28;20045;-69
2023/04/27 09:32:14;;;;;;;5.03;1.73;;;;;;;;;;5017055;28;20049;-70
2023/04/27 09:34:40;;;;;;;6.38;1.55;;;;;;;;;;5015779;28;20037;-69
2023/04/27 09:37:06;;;;;;;7.20;1.65;;;13.50;99.90;;;;;;5025742;28;20040;-66
2023/04/27 09:39:33;;;;;;;3.90;1.77;;;;;;;;;;5013851;28;20041;-68
2023/04/27 09:41:59;;;;;;;9.52;2.05;;;;;;;;;;5017360;28;20053;-65
2023/04/27 09:44:26;;;;;;;4.20;1.50;;;;;;;;;;5014326;28;20037;-67
2023/04/27 09:46:52;;;;;;;4.93;2.25;;;;;;;;;;5016692;28;20044;-71
2023/04/27 09:49:18;;;;;;;3.42;1.67;;;;;;;;;;5050735;28;20080;-66
2023/04/27 09:51:44;;;;;;;3.97;2.15;;;;;;;;;;5050407;28;20048;-67
2023/04/27 09:54:13;;;;;;;4.95;1.83;;;;;;;;;;5049668;28;20124;-66
2023/04/27 09:56:52;;;;;;;3.83;1.88;;;;;;;;;;5032479;28;20047;-67
2023/04/27 09:59:36;;;;;;;7.68;2.70;;;;;;;;;;5051814;28;20041;-65
2023/04/27 10:02:03;;;;;;;4.15;1.95;;;;;;;;;;5033781;28;20502;-67
2023/04/27 10:04:45;;;;;;;5.45;1.95;;;;;;;;;;5048381;28;20041;-67
2023/04/27 10:07:13;;;;;;;8.63;2.00;;;12.90;99.90;;;;;;5025473;28;20098;-64
2023/04/27 10:09:42;;;;;;;6.00;1.85;;;;;;;;;;5031732;28;20044;-67
2023/04/27 10:12:14;;;;;;;3.20;2.00;;;;;;;;;;5008352;28;20036;-67
2023/04/27 10:14:50;;;;;;;5.13;2.10;;;;;;;;;;5045154;28;20513;-67
2023/04/27 10:17:17;;;;;;;7.40;2.20;;;14.00;99.90;;;;;;4997714;28;20053;-68
2023/04/27 10:20:02;;;;;;;3.55;1.80;;;;;;;;;;4997465;28;20045;-72
2023/04/27 10:22:41;;;;;;;8.13;2.55;;;;;;;;;;5038247;28;20056;-69
2023/04/27 10:25:17;;;;;;;3.97;2.13;;;;;;;;;;5029620;28;20041;-66
2023/04/27 10:27:47;;;;;;;6.32;2.28;;;14.40;99.90;;;;;;5016670;28;20124;-67
2023/04/27 10:30:16;;;;;;;5.80;2.35;;;14.40;99.90;;;;;;5033819;28;20172;-68
2023/04/27 10:32:50;;;;;;;4.28;2.10;;;;;;;;;;5017469;28;20053;-66
2023/04/27 10:35:16;;;;;;;4.93;2.30;;;;;;;;;;5042415;28;20040;-66
2023/04/27 10:37:43;;;;;;;4.90;2.42;;;;;;;;;;5027829;28;20049;-64
2023/04/27 10:40:13;;;;;;;13.10;3.10;;;;;;;;;;5041524;28;20106;-67
2023/04/27 10:42:39;;;;;;;;;;;;;;;;;;5046228;28;20492;-68
2023/04/27 10:45:05;;;;;;;8.00;3.05;;;;;;;;;;5012924;28;19936;-66
2023/04/27 10:47:39;;;;;;;6.60;2.72;;;;;;;;;;5013870;28;20440;-65
2023/04/27 10:50:07;;;;;;;7.53;3.10;;;;;;;;;;5028713;28;20053;-66
2023/04/27 10:52:33;;;;;;;7.00;3.00;;;;;;;;;;5029189;28;20040;-66
2023/04/27 10:55:05;;;;;;;6.20;3.28;;;;;;;;;;5045614;28;20036;-65
2023/04/27 10:57:31;;;;;;;7.15;3.42;;;;;;;;;;5025498;28;20434;-65
2023/04/27 10:59:57;;;;;;;5.93;3.05;;;;;;;;;;5009785;28;20346;-65
2023/04/27 11:02:28;;;;;;;7.65;3.33;;;;;;;;;;5043099;28;20050;-65
2023/04/27 11:04:55;;;;;;;10.85;4.03;;;;;;;;;;5028656;28;20493;-64
2023/04/27 11:07:25;;;;;;;7.07;3.17;;;;;;;;;;5039773;28;20124;-64
2023/04/27 11:09:51;;;;;;;9.35;3.70;;;;;;;;;;5011165;28;20055;-64
2023/04/27 11:12:17;;;;;;;11.75;5.18;;;;;;;;;;5032254;28;20091;-70
2023/04/27 11:14:43;;;;;;;5.75;3.75;;;;;;;;;;5052185;28;20060;-68
2023/04/27 11:17:12;;;;;;;8.82;3.88;;;;;;;;;;5019910;28;20053;-64
2023/04/27 11:19:45;;;;;;;7.75;4.05;;;;;;;;;;5019330;28;20485;-66
2023/04/27 11:22:11;;;;;;;8.85;4.18;;;;;;;;;;5052191;28;20497;-64
2023/04/27 11:24:46;;;;;;;7.40;3.75;;;;;;;;;;5053562;28;20056;-67
2023/04/27 11:27:12;;;;;;;8.02;3.80;;;;;;;;;;5017039;28;20052;-65
2023/04/27 11:29:38;;;;;;;7.55;4.22;;;;;;;;;;5010159;28;20045;-65
2023/04/27 11:32:05;;;;;;;7.28;4.13;;;;;;;;;;5038210;28;20061;-65
2023/04/27 11:34:37;;;;;;;7.25;4.30;;;;;;;;;;5023319;28;20072;-67
2023/04/27 11:37:05;;;;;;;7.32;3.60;;;;;;;;;;5034043;28;20052;-67
2023/04/27 11:39:35;;;;;;;7.18;3.60;;;;;;;;;;5131611;22;20664;-68
2023/04/27 11:42:15;;;;;;;9.27;3.75;;;;;;;;;;4997912;28;20054;-69
2023/04/27 11:44:41;;;;;;;10.95;4.05;;;;;;;;;;5026354;28;20067;-68
2023/04/27 11:47:07;;;;;;;8.15;3.65;;;;;;;;;;5014871;28;20054;-68
2023/04/27 11:49:34;;;;;;;10.95;4.20;;;;;;;;;;5024925;28;20479;-68
2023/04/27 11:52:00;;;;;;;10.63;4.13;;;;;;;;;;4999209;28;20574;-68
2023/04/27 11:54:29;;;;;;;7.65;4.25;;;;;;;;;;5014743;28;20053;-68
2023/04/27 11:57:06;;;;;;;12.23;4.20;;;16.20;99.90;;;;;;5044713;22;20597;-68
2023/04/27 11:59:32;;;;;;;10.95;4.82;;;;;;;;;;5048073;28;20049;-68
2023/04/27 12:01:59;;;;;;;8.73;3.90;;;;;;;;;;5052518;28;20044;-69
2023/04/27 12:04:26;;;;;;;11.13;3.65;;;;;;;;;;5035549;28;20167;-69
2023/04/27 12:06:52;;;;;;;7.95;3.70;;;;;;;;;;5034096;28;20591;-67
2023/04/27 12:09:18;;;;;;;10.73;4.30;;;;;;;;;;5052018;28;20124;-68
2023/04/27 12:11:44;;;;;;;7.35;4.07;;;;;;;;;;5018558;28;20124;-68
2023/04/27 12:14:10;;;;;;;7.80;3.13;;;;;;;;;;5035125;28;20041;-68
2023/04/27 12:16:36;;;;;;;7.00;3.30;;;;;;;;;;5052897;28;20128;-68
2023/04/27 12:19:03;;;;;;;7.82;3.75;;;;;;;;;;5026088;23;20073;-68
2023/04/27 12:21:29;;;;;;;6.63;3.40;;;;;;;;;;5032377;28;20502;-68
2023/04/27 12:23:55;;;;;;;7.65;3.15;;;;;;;;;;5031153;28;20536;-68
2023/04/27 12:26:21;;;;;;;9.63;3.42;;;;;;;;;;5031985;28;20048;-68
2023/04/27 12:28:47;;;;;;;7.53;3.40;;;;;;;;;;5032565;28;20045;-68
2023/04/27 12:31:15;;;;;;;5.32;3.30;;;;;;;;;;5031766;28;20049;-68
2023/04/27 12:33:41;;;;;;;10.35;3.65;;;;;;;;;;5018464;28;20050;-68
2023/04/27 12:36:07;;;;;;;5.20;2.95;;;;;;;;;;5032653;28;20046;-68
2023/04/27 12:38:33;;;;;;;7.60;3.85;;;;;;;;;;5031698;28;20132;-68
2023/04/27 12:41:01;;;;;;;10.10;3.83;;;;;;;;;;5029239;28;20140;-68
2023/04/27 12:43:27;;;;;;;7.13;3.58;;;;;;;;;;5014408;28;20505;-68
2023/04/27 12:45:53;;;;;;;8.80;4.65;;;;;;;;;;5031047;28;20045;-68
2023/04/27 12:48:21;;;;;;;8.10;3.42;;;;;;;;;;5030950;28;20044;-68
2023/04/27 12:50:47;;;;;;;10.82;4.10;;;;;;;;;;5015640;28;20139;-67
2023/04/27 12:53:13;;;;;;;9.70;4.95;;;;;;;;;;5032121;28;20077;-68
2023/04/27 12:55:39;;;;;;;8.52;3.88;;;;;;;;;;5031572;28;20102;-68
2023/04/27 12:58:06;;;;;;;8.27;4.60;;;;;;;;;;5031425;28;20057;-68
2023/04/27 13:00:33;;;;;;;5.70;3.53;;;;;;;;;;5012976;28;20049;-68
2023/04/27 13:02:59;;;;;;;8.18;3.38;;;;;;;;;;5031075;28;20049;-68
2023/04/27 13:05:25;;;;;;;8.15;3.40;;;;;;;;;;5030962;28;20140;-68
2023/04/27 13:07:51;;;;;;;7.53;3.72;;;;;;;;;;5031229;28;20486;-68
2023/04/27 13:10:17;;;;;;;7.32;2.92;;;;;;;;;;5030413;28;20117;-68
2023/04/27 13:12:43;;;;;;;8.30;3.50;;;;;;;;;;5031910;28;20132;-68
2023/04/27 13:15:10;;;;;;;9.35;4.47;;;;;;;;;;5030812;28;20402;-68
2023/04/27 13:17:36;;;;;;;7.13;4.05;;;;;;;;;;5030190;28;20087;-68
2023/04/27 13:20:02;;;;;;;8.40;4.10;;;;;;;;;;5042901;28;20563;-68
2023/04/27 13:22:28;;;;;;;5.80;2.88;;;;;;;;;;5051523;28;20084;-68
2023/04/27 13:24:54;;;;;;;7.63;3.50;;;;;;;;;;5017579;28;20091;-68
2023/04/27 13:27:23;;;;;;;6.45;3.13;;;;;;;;;;5014885;28;20052;-68
2023/04/27 13:29:50;;;;;;;8.43;3.70;;;;;;;;;;5029706;28;20049;-68
2023/04/27 13:32:16;;;;;;;7.60;3.10;;;;;;;;;;5023194;28;20049;-68
2023/04/27 13:34:42;;;;;;;7.95;3.15;;;;;;;;;;5034264;28;20084;-68
2023/04/27 13:37:08;;;;;;;5.25;3.47;;;;;;;;;;5049953;28;20091;-69
2023/04/27 13:39:36;;;;;;;6.53;3.28;;;;;;;;;;5033273;28;20045;-68
2023/04/27 13:42:02;;;;;;;6.57;3.08;;;;;;;;;;5033955;28;20041;-68
2023/04/27 13:44:28;;;;;;;9.77;3.53;;;;;;;;;;5051006;28;20037;-67
2023/04/27 13:46:54;;;;;;;6.80;3.20;;;;;;;;;;5052558;28;20132;-68
2023/04/27 13:49:20;;;;;;;7.10;3.92;;;;;;;;;;5048652;28;20045;-67
2023/04/27 13:51:46;;;;;;;9.02;3.50;;;;;;;;;;5051474;28;20040;-68
2023/04/27 13:54:12;;;;;;;7.57;3.33;;;;;;;;;;5051006;28;20110;-68
2023/04/27 13:56:38;;;;;;;5.38;2.88;;;;;;;;;;5051480;28;20432;-68
2023/04/27 13:59:05;;;;;;;5.65;3.63;;;;;;;;;;5051443;28;20509;-68
2023/04/27 14:01:31;;;;;;;7.70;3.28;;;;;;;;;;5050390;28;20057;-68
2023/04/27 14:03:57;;;;;;;6.93;3.05;;;;;;;;;;5032466;28;20045;-68
2023/04/27 14:06:23;;;;;;;7.57;3.40;;;;;;;;;;5032014;28;20037;-69
2023/04/27 14:08:50;;;;;;;5.32;3.17;;;;;;;;;;5051202;28;20397;-69
2023/04/27 14:11:17;;;;;;;7.22;3.67;;;;;;;;;;5033155;28;20071;-68
2023/04/27 14:13:43;;;;;;;5.57;2.88;;;;;;;;;;5049642;28;20052;-68
2023/04/27 14:16:09;;;;;;;4.93;3.40;;;;;;;;;;5030336;28;20087;-68
2023/04/27 14:18:35;;;;;;;7.30;3.25;;;;;;;;;;5046656;28;20064;-68
2023/04/27 14:21:01;;;;;;;6.50;3.03;;;;;;;;;;5052065;28;20056;-68
2023/04/27 14:23:27;;;;;;;7.50;3.13;;;;;;;;;;5053123;28;20389;-69
2023/04/27 14:25:53;;;;;;;10.07;3.55;;;;;;;;;;5054709;28;20082;-69
2023/04/27 14:28:20;;;;;;;7.43;3.08;;;;;;;;;;5050489;28;20041;-70
2023/04/27 14:30:46;;;;;;;11.30;3.97;;;;;;;;;;5053906;28;20485;-69
2023/04/27 14:33:12;;;;;;;9.48;3.85;;;;;;;;;;5016494;28;20050;-69
2023/04/27 14:35:38;;;;;;;8.07;3.75;;;;;;;;;;5047691;28;20044;-69
2023/04/27 14:38:04;;;;;;;6.15;3.42;;;;;;;;;;5019237;28;20045;-70